createdAt,value
2018-12-06T00:01:33.481Z,10.25
2018-12-06T00:04:01.773Z,10.27
2018-12-06T00:06:30.171Z,10.29
2018-12-06T00:08:58.473Z,10.29
2018-12-06T00:14:08.834Z,10.32
2018-12-06T00:16:37.245Z,10.37
2018-12-06T00:21:51.736Z,10.43
2018-12-06T00:24:21.129Z,10.45
2018-12-06T00:29:31.022Z,10.49
2018-12-06T00:31:59.395Z,10.49
2018-12-06T00:34:27.731Z,10.48
2018-12-06T00:36:56.145Z,10.45
2018-12-06T00:39:24.464Z,10.45
2018-12-06T00:41:52.771Z,10.44
2018-12-06T00:44:21.088Z,10.43
2018-12-06T00:46:49.481Z,10.44
2018-12-06T00:49:17.767Z,10.45
2018-12-06T00:51:46.438Z,10.47
2018-12-06T00:54:14.749Z,10.48
2018-12-06T00:56:43.077Z,10.51
2018-12-06T00:59:11.416Z,10.53
2018-12-06T01:01:39.807Z,10.54
2018-12-06T01:04:08.161Z,10.55
2018-12-06T01:06:36.493Z,10.55
2018-12-06T01:09:06.105Z,10.55
2018-12-06T01:11:34.632Z,10.54
2018-12-06T01:14:03.096Z,10.53
2018-12-06T01:16:31.497Z,10.51
2018-12-06T01:18:59.915Z,10.50
2018-12-06T01:21:28.307Z,10.52
2018-12-06T01:23:56.765Z,10.54
2018-12-06T01:26:25.178Z,10.57
2018-12-06T01:28:53.564Z,10.57
2018-12-06T01:31:22.052Z,10.59
2018-12-06T01:33:50.618Z,10.59
2018-12-06T01:36:19.023Z,10.62
2018-12-06T01:38:47.408Z,10.63
2018-12-06T01:41:15.753Z,10.64
2018-12-06T01:43:44.154Z,10.63
2018-12-06T01:46:12.503Z,10.65
2018-12-06T01:48:41.632Z,10.65
2018-12-06T01:51:10.014Z,10.68
2018-12-06T01:53:38.363Z,10.70
2018-12-06T01:56:06.770Z,10.74
2018-12-06T01:58:35.184Z,10.75
2018-12-06T02:01:03.945Z,10.76
2018-12-06T02:03:32.286Z,10.77
2018-12-06T02:06:00.903Z,10.79
2018-12-06T02:08:29.313Z,10.81
2018-12-06T02:10:57.698Z,10.83
2018-12-06T02:13:26.216Z,10.85
2018-12-06T02:15:54.622Z,10.86
2018-12-06T02:18:23.057Z,10.89
2018-12-06T02:20:51.615Z,10.90
2018-12-06T02:23:19.939Z,10.91
2018-12-06T02:25:48.297Z,10.93
2018-12-06T02:28:16.672Z,10.94
2018-12-06T02:30:45.049Z,10.93
2018-12-06T02:33:13.404Z,10.94
2018-12-06T02:35:41.741Z,10.93
2018-12-06T02:38:10.189Z,10.94
2018-12-06T02:40:38.510Z,10.93
2018-12-06T02:45:48.368Z,10.92
2018-12-06T02:48:16.731Z,10.93
2018-12-06T02:50:45.079Z,10.92
2018-12-06T02:53:13.888Z,10.90
2018-12-06T02:55:42.243Z,10.89
2018-12-06T03:00:56.106Z,10.88
2018-12-06T03:03:24.487Z,10.89
2018-12-06T03:05:52.775Z,10.89
2018-12-06T03:08:21.125Z,10.90
2018-12-06T03:13:31.459Z,10.89
2018-12-06T03:15:59.792Z,10.90
2018-12-06T03:21:10.991Z,10.86
2018-12-06T03:23:39.311Z,10.85
2018-12-06T03:26:07.768Z,10.85
2018-12-06T03:28:36.080Z,10.82
2018-12-06T03:33:46.701Z,10.80
2018-12-06T03:36:15.104Z,10.79
2018-12-06T03:41:25.335Z,10.79
2018-12-06T03:46:35.632Z,10.85
2018-12-06T03:49:04.171Z,10.86
2018-12-06T03:51:32.453Z,10.88
2018-12-06T03:56:42.928Z,10.93
2018-12-06T03:59:14.524Z,10.91
2018-12-06T04:01:42.900Z,10.90
2018-12-06T04:04:25.533Z,10.90
2018-12-06T04:09:36.422Z,10.86
2018-12-06T04:12:04.838Z,10.84
2018-12-06T04:14:36.961Z,10.84
2018-12-06T04:17:05.881Z,10.85
2018-12-06T04:22:16.202Z,10.86
2018-12-06T04:24:44.504Z,10.86
2018-12-06T04:27:13.100Z,10.88
2018-12-06T04:29:41.402Z,10.88
2018-12-06T04:32:09.763Z,10.90
2018-12-06T04:34:38.543Z,10.93
2018-12-06T04:37:06.903Z,10.94
2018-12-06T04:42:16.767Z,10.98
2018-12-06T04:44:45.128Z,10.99
2018-12-06T04:49:54.939Z,11.02
2018-12-06T04:52:23.328Z,11.03
2018-12-06T04:54:51.696Z,11.04
2018-12-06T04:57:20.039Z,11.05
2018-12-06T05:02:31.553Z,11.10
2018-12-06T05:04:59.931Z,11.13
2018-12-06T05:10:10.315Z,11.16
2018-12-06T05:12:38.642Z,11.17
2018-12-06T05:15:07.399Z,11.18
2018-12-06T05:17:35.964Z,11.19
2018-12-06T05:20:04.946Z,11.20
2018-12-06T05:25:15.320Z,11.24
2018-12-06T05:27:43.715Z,11.27
2018-12-06T05:30:12.109Z,11.30
2018-12-06T05:32:40.482Z,11.32
2018-12-06T05:37:50.880Z,11.37
2018-12-06T05:40:19.261Z,11.39
2018-12-06T05:45:29.699Z,11.42
2018-12-06T05:47:58.226Z,11.44
2018-12-06T05:50:26.823Z,11.46
2018-12-06T05:52:55.258Z,11.48
2018-12-06T05:55:23.633Z,11.50
2018-12-06T05:57:52.397Z,11.49
2018-12-06T06:00:20.839Z,11.51
2018-12-06T06:05:34.924Z,11.51
2018-12-06T06:08:03.294Z,11.52
2018-12-06T06:10:31.684Z,11.52
2018-12-06T06:12:59.991Z,11.54
2018-12-06T06:18:09.829Z,11.59
2018-12-06T06:20:38.194Z,11.60
2018-12-06T06:23:06.564Z,11.63
2018-12-06T06:25:34.940Z,11.65
2018-12-06T06:28:03.678Z,11.68
2018-12-06T06:30:32.332Z,11.71
2018-12-06T06:33:00.860Z,11.74
2018-12-06T06:38:11.262Z,11.78
2018-12-06T06:40:39.608Z,11.80
2018-12-06T06:45:49.918Z,11.83
2018-12-06T06:48:18.257Z,11.85
2018-12-06T06:50:46.617Z,11.86
2018-12-06T06:53:15.982Z,11.89
2018-12-06T06:58:26.644Z,11.88
2018-12-06T07:00:55.219Z,11.91
2018-12-06T07:06:05.743Z,11.95
2018-12-06T07:08:34.110Z,11.95
2018-12-06T07:11:02.507Z,11.98
2018-12-06T07:13:30.864Z,12.00
2018-12-06T07:15:59.278Z,12.01
2018-12-06T07:18:27.647Z,12.04
2018-12-06T07:20:56.006Z,12.07
2018-12-06T07:23:24.385Z,12.08
2018-12-06T07:25:52.785Z,12.08
2018-12-06T07:31:03.891Z,12.11
2018-12-06T07:33:32.183Z,12.12
2018-12-06T07:36:00.851Z,12.13
2018-12-06T07:38:29.279Z,12.16
2018-12-06T07:40:57.689Z,12.18
2018-12-06T07:43:27.176Z,12.19
2018-12-06T07:46:11.454Z,12.19
2018-12-06T07:48:39.816Z,12.21
2018-12-06T07:51:08.268Z,12.22
2018-12-06T07:53:37.774Z,12.24
2018-12-06T07:56:06.133Z,12.27
2018-12-06T07:58:37.908Z,12.28
2018-12-06T08:01:06.271Z,12.30
2018-12-06T08:03:34.625Z,12.30
2018-12-06T08:06:03.074Z,12.32
2018-12-06T08:08:31.603Z,12.35
2018-12-06T08:11:00.000Z,12.36
2018-12-06T08:13:28.468Z,12.37
2018-12-06T08:15:56.926Z,12.40
2018-12-06T08:21:08.357Z,12.42
2018-12-06T08:23:36.700Z,12.42
2018-12-06T08:28:46.825Z,12.45
2018-12-06T08:31:15.178Z,12.45
2018-12-06T08:33:43.547Z,12.50
2018-12-06T08:36:11.928Z,12.49
2018-12-06T08:41:22.089Z,12.56
2018-12-06T08:46:33.105Z,12.65
2018-12-06T08:49:03.155Z,12.76
2018-12-06T08:51:31.658Z,12.90
2018-12-06T08:56:42.793Z,13.33
2018-12-06T08:59:11.154Z,13.53
2018-12-06T09:01:39.539Z,13.78
2018-12-06T09:04:07.988Z,14.07
2018-12-06T09:06:36.306Z,14.38
2018-12-06T09:09:07.189Z,14.70
2018-12-06T09:11:36.715Z,15.00
2018-12-06T09:14:05.177Z,15.25
2018-12-06T09:16:33.610Z,15.46
2018-12-06T09:19:02.028Z,15.64
2018-12-06T09:21:30.500Z,15.79
2018-12-06T09:23:58.863Z,15.94
2018-12-06T09:26:27.278Z,16.02
2018-12-06T09:28:55.619Z,16.07
2018-12-06T09:31:23.991Z,16.07
2018-12-06T09:34:06.397Z,16.06
2018-12-06T09:36:37.388Z,16.04
2018-12-06T09:39:09.703Z,15.98
2018-12-06T09:41:38.233Z,15.89
2018-12-06T09:44:07.098Z,15.80
2018-12-06T09:49:17.572Z,15.64
2018-12-06T09:51:46.282Z,15.58
2018-12-06T09:56:56.547Z,15.60
2018-12-06T09:59:25.000Z,15.68
2018-12-06T10:01:53.480Z,15.80
2018-12-06T10:04:21.948Z,15.97
2018-12-06T10:06:50.558Z,16.08
2018-12-06T10:09:18.853Z,16.23
2018-12-06T10:11:47.544Z,16.35
2018-12-06T10:14:16.754Z,16.47
2018-12-06T10:16:45.337Z,16.59
2018-12-06T10:19:14.220Z,16.69
2018-12-06T10:21:42.727Z,16.79
2018-12-06T10:24:11.213Z,16.88
2018-12-06T10:26:39.661Z,16.92
2018-12-06T10:29:08.295Z,16.91
2018-12-06T10:31:36.784Z,16.87
2018-12-06T10:34:05.257Z,16.83
2018-12-06T10:36:33.686Z,16.82
2018-12-06T10:39:02.179Z,16.80
2018-12-06T10:41:32.200Z,16.63
2018-12-06T10:44:00.807Z,16.49
2018-12-06T10:46:29.384Z,16.41
2018-12-06T10:48:57.809Z,16.34
2018-12-06T10:51:40.782Z,16.29
2018-12-06T10:56:51.080Z,16.12
2018-12-06T10:59:19.446Z,15.97
2018-12-06T11:01:53.491Z,15.83
2018-12-06T11:07:07.161Z,15.61
2018-12-06T11:09:35.557Z,15.60
2018-12-06T11:12:04.835Z,15.54
2018-12-06T11:14:33.190Z,15.51
2018-12-06T11:17:01.622Z,15.45
2018-12-06T11:19:30.419Z,15.41
2018-12-06T11:21:58.979Z,15.39
2018-12-06T11:24:27.513Z,15.40
2018-12-06T11:29:37.911Z,15.36
2018-12-06T11:32:06.420Z,15.35
2018-12-06T11:37:13.976Z,15.33
2018-12-06T11:39:42.372Z,15.32
2018-12-06T11:42:10.824Z,15.32
2018-12-06T11:44:39.202Z,15.27
2018-12-06T11:49:49.620Z,15.25
2018-12-06T11:52:18.105Z,15.24
2018-12-06T11:57:28.280Z,15.27
2018-12-06T11:59:56.698Z,15.30
2018-12-06T12:05:07.176Z,15.36
2018-12-06T12:07:35.542Z,15.30
2018-12-06T12:10:04.997Z,15.29
2018-12-06T12:12:33.577Z,15.33
2018-12-06T12:17:46.529Z,15.30
2018-12-06T12:20:14.987Z,15.27
2018-12-06T12:22:43.420Z,15.26
2018-12-06T12:25:11.783Z,15.26
2018-12-06T12:30:21.952Z,15.27
2018-12-06T12:32:50.251Z,15.27
2018-12-06T12:35:18.907Z,15.26
2018-12-06T12:37:47.521Z,15.25
2018-12-06T12:40:15.974Z,15.23
2018-12-06T12:42:44.355Z,15.18
2018-12-06T12:45:12.897Z,15.17
2018-12-06T12:47:41.582Z,15.17
2018-12-06T12:50:10.195Z,15.24
2018-12-06T12:52:38.905Z,15.40
2018-12-06T12:55:09.087Z,15.61
2018-12-06T12:57:37.591Z,15.88
2018-12-06T13:00:07.120Z,16.15
2018-12-06T13:02:35.554Z,16.38
2018-12-06T13:05:04.635Z,16.60
2018-12-06T13:07:33.183Z,16.87
2018-12-06T13:10:01.604Z,17.18
2018-12-06T13:12:29.981Z,17.45
2018-12-06T13:14:59.127Z,17.69
2018-12-06T13:17:28.471Z,18.00
2018-12-06T13:19:56.891Z,18.26
2018-12-06T13:22:25.346Z,18.43
2018-12-06T13:24:54.638Z,18.67
2018-12-06T13:27:23.122Z,18.99
2018-12-06T13:29:58.437Z,19.31
2018-12-06T13:32:26.922Z,19.58
2018-12-06T13:34:55.392Z,19.82
2018-12-06T13:37:23.768Z,19.95
2018-12-06T13:42:34.163Z,19.85
2018-12-06T13:45:02.512Z,19.85
2018-12-06T13:47:31.012Z,19.76
2018-12-06T13:49:59.422Z,19.65
2018-12-06T13:52:27.779Z,19.54
2018-12-06T13:57:37.969Z,19.15
2018-12-06T14:00:06.709Z,18.95
2018-12-06T14:05:17.025Z,18.58
2018-12-06T14:07:45.873Z,18.30
2018-12-06T14:10:14.284Z,18.05
2018-12-06T14:12:42.624Z,17.94
2018-12-06T14:15:11.425Z,17.80
2018-12-06T14:17:39.909Z,17.67
2018-12-06T14:20:09.291Z,17.57
2018-12-06T14:25:20.032Z,17.36
2018-12-06T14:27:48.484Z,17.27
2018-12-06T14:30:16.829Z,17.17
2018-12-06T14:32:45.203Z,17.12
2018-12-06T14:37:55.665Z,17.04
2018-12-06T14:40:24.198Z,17.03
2018-12-06T14:45:35.415Z,16.81
2018-12-06T14:48:04.114Z,16.71
2018-12-06T14:50:32.534Z,16.71
2018-12-06T14:53:01.161Z,16.68
2018-12-06T14:58:11.507Z,16.60
2018-12-06T15:00:39.964Z,16.59
2018-12-06T15:05:50.230Z,16.55
2018-12-06T15:08:18.682Z,16.54
2018-12-06T15:10:53.446Z,16.49
2018-12-06T15:13:21.902Z,16.41
2018-12-06T15:15:50.426Z,16.36
2018-12-06T15:21:00.867Z,16.24
2018-12-06T15:23:29.443Z,16.18
2018-12-06T15:28:39.861Z,16.07
2018-12-06T15:31:08.433Z,15.99
2018-12-06T15:33:36.892Z,15.95
2018-12-06T15:36:05.321Z,15.90
2018-12-06T15:38:33.861Z,15.86
2018-12-06T15:41:02.508Z,15.83
2018-12-06T15:43:30.881Z,15.77
2018-12-06T15:45:59.254Z,15.74
2018-12-06T15:51:09.845Z,15.69
2018-12-06T15:53:38.387Z,15.66
2018-12-06T15:58:48.685Z,15.56
2018-12-06T16:01:17.399Z,15.55
2018-12-06T16:06:27.809Z,15.47
2018-12-06T16:08:56.160Z,15.42
2018-12-06T16:11:24.570Z,15.36
2018-12-06T16:13:53.353Z,15.28
2018-12-06T16:16:21.781Z,15.23
2018-12-06T16:18:50.575Z,15.21
2018-12-06T16:21:19.194Z,15.20
2018-12-06T16:26:29.796Z,15.17
2018-12-06T16:28:58.219Z,15.17
2018-12-06T16:31:27.018Z,15.16
2018-12-06T16:33:55.496Z,15.15
2018-12-06T16:39:07.781Z,15.15
2018-12-06T16:41:36.455Z,15.16
2018-12-06T16:44:05.409Z,15.17
2018-12-06T16:46:34.153Z,15.17
2018-12-06T16:49:09.867Z,15.17
2018-12-06T16:54:15.204Z,15.15
2018-12-06T16:56:43.638Z,15.16
2018-12-06T17:01:53.940Z,15.13
2018-12-06T17:04:22.450Z,15.11
2018-12-06T17:06:50.862Z,15.09
2018-12-06T17:09:19.304Z,15.09
2018-12-06T17:14:29.706Z,15.02
2018-12-06T17:16:58.211Z,14.99
2018-12-06T17:19:26.633Z,14.93
2018-12-06T17:21:55.010Z,14.90
2018-12-06T17:24:23.402Z,14.87
2018-12-06T17:26:51.857Z,14.83
2018-12-06T17:29:20.466Z,14.81
2018-12-06T17:34:31.106Z,14.75
2018-12-06T17:36:59.525Z,14.73
2018-12-06T17:39:27.968Z,14.69
2018-12-06T17:41:56.422Z,14.66
2018-12-06T17:47:06.698Z,14.59
2018-12-06T17:49:35.098Z,14.55
2018-12-06T17:54:45.634Z,14.52
2018-12-06T17:57:13.997Z,14.50
2018-12-06T17:59:42.347Z,14.50
2018-12-06T18:02:10.777Z,14.49
2018-12-06T18:04:39.203Z,14.49
2018-12-06T18:09:49.388Z,14.49
2018-12-06T18:12:17.749Z,14.48
2018-12-06T18:14:46.126Z,14.48
2018-12-06T18:17:14.567Z,14.47
2018-12-06T18:22:24.922Z,14.46
2018-12-06T18:27:35.355Z,14.41
2018-12-06T18:30:06.243Z,14.38
2018-12-06T18:35:16.539Z,14.35
2018-12-06T18:37:44.949Z,14.37
2018-12-06T18:40:13.564Z,14.37
2018-12-06T18:42:41.913Z,14.38
2018-12-06T18:45:10.500Z,14.39
2018-12-06T18:50:20.835Z,14.40
2018-12-06T18:55:31.384Z,14.39
2018-12-06T18:57:59.917Z,14.39
2018-12-06T19:00:28.303Z,14.40
2018-12-06T19:02:56.839Z,14.43
2018-12-06T19:05:25.307Z,14.42
2018-12-06T19:07:53.926Z,14.44
2018-12-06T19:10:22.446Z,14.45
2018-12-06T19:12:50.829Z,14.46
2018-12-06T19:15:19.249Z,14.46
2018-12-06T19:17:47.578Z,14.48
2018-12-06T19:20:15.891Z,14.47
2018-12-06T19:22:44.444Z,14.51
2018-12-06T19:25:12.978Z,14.51
2018-12-06T19:27:41.766Z,14.51
2018-12-06T19:30:10.929Z,14.53
2018-12-06T19:32:39.289Z,14.54
2018-12-06T19:37:50.124Z,14.55
2018-12-06T19:40:18.518Z,14.57
2018-12-06T19:42:46.999Z,14.60
2018-12-06T19:45:15.583Z,14.57
2018-12-06T19:50:27.100Z,14.57
2018-12-06T19:52:55.529Z,14.58
2018-12-06T19:55:25.032Z,14.58
2018-12-06T19:57:53.452Z,14.59
2018-12-06T20:00:22.241Z,14.58
2018-12-06T20:02:50.587Z,14.58
2018-12-06T20:05:19.077Z,14.58
2018-12-06T20:07:47.493Z,14.59
2018-12-06T20:10:16.017Z,14.60
2018-12-06T20:15:26.436Z,14.60
2018-12-06T20:17:54.783Z,14.61
2018-12-06T20:20:23.812Z,14.61
2018-12-06T20:22:52.551Z,14.61
2018-12-06T20:25:21.089Z,14.62
2018-12-06T20:27:50.510Z,14.64
2018-12-06T20:30:19.056Z,14.65
2018-12-06T20:32:47.554Z,14.67
2018-12-06T20:35:15.961Z,14.69
2018-12-06T20:37:44.896Z,14.69
2018-12-06T20:40:13.253Z,14.68
2018-12-06T20:42:41.673Z,14.67
2018-12-06T20:45:10.059Z,14.68
2018-12-06T20:47:38.979Z,14.69
2018-12-06T20:50:08.237Z,14.70
2018-12-06T20:52:36.663Z,14.71
2018-12-06T20:55:06.018Z,14.72
2018-12-06T20:57:37.441Z,14.72
2018-12-06T21:02:48.521Z,14.72
2018-12-06T21:05:17.102Z,14.70
2018-12-06T21:10:27.753Z,14.67
2018-12-06T21:15:38.196Z,14.66
2018-12-06T21:18:06.690Z,14.68
2018-12-06T21:20:35.071Z,14.68
2018-12-06T21:23:03.683Z,14.70
2018-12-06T21:25:32.792Z,14.69
2018-12-06T21:30:44.059Z,14.67
2018-12-06T21:33:12.415Z,14.66
2018-12-06T21:35:40.757Z,14.67
2018-12-06T21:38:11.620Z,14.67
2018-12-06T21:40:40.097Z,14.69
2018-12-06T21:45:50.326Z,14.68
2018-12-06T21:48:18.991Z,14.69
2018-12-06T21:50:47.452Z,14.70
2018-12-06T21:53:15.829Z,14.71
2018-12-06T21:55:44.299Z,14.71
2018-12-06T21:58:12.800Z,14.73
2018-12-06T22:03:23.125Z,14.73
2018-12-06T22:05:51.531Z,14.73
2018-12-06T22:11:01.621Z,14.71
2018-12-06T22:13:29.987Z,14.70
2018-12-06T22:18:40.293Z,14.69
2018-12-06T22:21:08.692Z,14.67
2018-12-06T22:26:18.867Z,14.64
2018-12-06T22:28:47.240Z,14.64
2018-12-06T22:31:15.859Z,14.65
2018-12-06T22:33:44.212Z,14.66
2018-12-06T22:38:54.341Z,14.67
2018-12-06T22:41:22.771Z,14.67
2018-12-06T22:43:51.159Z,14.66
2018-12-06T22:46:19.587Z,14.66
2018-12-06T22:48:47.934Z,14.67
2018-12-06T22:51:24.157Z,14.67
2018-12-06T22:53:47.417Z,14.64
2018-12-06T22:56:16.052Z,14.64
2018-12-06T22:58:44.715Z,14.64
2018-12-06T23:01:14.161Z,14.62
2018-12-06T23:03:42.600Z,14.64
2018-12-06T23:06:10.979Z,14.62
2018-12-06T23:08:39.520Z,14.61
2018-12-06T23:11:07.897Z,14.62
2018-12-06T23:13:36.314Z,14.61
2018-12-06T23:18:46.322Z,14.63
2018-12-06T23:21:14.717Z,14.63
2018-12-06T23:26:24.960Z,14.62
2018-12-06T23:28:53.332Z,14.62
2018-12-06T23:31:21.814Z,14.62
2018-12-06T23:33:50.221Z,14.62
2018-12-06T23:36:18.721Z,14.63
2018-12-06T23:38:47.273Z,14.63
2018-12-06T23:41:15.844Z,14.62
2018-12-06T23:46:26.209Z,14.60
2018-12-06T23:48:54.682Z,14.55
2018-12-06T23:51:38.470Z,14.53
2018-12-06T23:54:06.829Z,14.51
2018-12-06T23:59:17.281Z,14.47
